createdAt,value
2018-04-10T00:00:43.791Z,100.00
2018-04-10T00:01:46.805Z,100.00
2018-04-10T00:02:50.137Z,100.00
2018-04-10T00:03:53.225Z,100.00
2018-04-10T00:04:57.837Z,100.00
2018-04-10T00:06:02.549Z,100.00
2018-04-10T00:07:06.790Z,100.00
2018-04-10T00:08:10.094Z,100.00
2018-04-10T00:09:13.041Z,100.00
2018-04-10T00:10:15.953Z,100.00
2018-04-10T00:11:19.475Z,100.00
2018-04-10T00:12:23.088Z,100.00
2018-04-10T00:13:28.520Z,100.00
2018-04-10T00:14:32.193Z,100.00
2018-04-10T00:15:35.167Z,100.00
2018-04-10T00:16:38.216Z,100.00
2018-04-10T00:17:41.122Z,100.00
2018-04-10T00:18:45.474Z,100.00
2018-04-10T00:19:49.188Z,100.00
2018-04-10T00:20:52.222Z,100.00
2018-04-10T00:21:55.552Z,100.00
2018-04-10T00:22:58.500Z,100.00
2018-04-10T00:24:02.264Z,100.00
2018-04-10T00:25:05.887Z,100.00
2018-04-10T00:26:09.327Z,100.00
2018-04-10T00:27:12.309Z,100.00
2018-04-10T00:28:15.367Z,100.00
2018-04-10T00:29:19.223Z,100.00
2018-04-10T00:30:23.348Z,100.00
2018-04-10T00:31:26.897Z,100.00
2018-04-10T00:32:30.197Z,100.00
2018-04-10T00:33:33.130Z,100.00
2018-04-10T00:34:36.196Z,100.00
2018-04-10T00:35:40.009Z,100.00
2018-04-10T00:36:43.231Z,100.00
2018-04-10T00:37:46.336Z,100.00
2018-04-10T00:38:49.641Z,100.00
2018-04-10T00:39:52.755Z,100.00
2018-04-10T00:40:58.706Z,100.00
2018-04-10T00:42:03.033Z,100.00
2018-04-10T00:43:07.050Z,100.00
2018-04-10T00:44:10.070Z,100.00
2018-04-10T00:45:13.381Z,100.00
2018-04-10T00:46:16.418Z,100.00
2018-04-10T00:47:20.058Z,100.00
2018-04-10T00:48:23.698Z,100.00
2018-04-10T00:49:26.799Z,100.00
2018-04-10T00:50:30.013Z,100.00
2018-04-10T00:51:33.197Z,100.00
2018-04-10T00:52:36.489Z,100.00
2018-04-10T00:53:40.571Z,100.00
2018-04-10T00:54:43.484Z,100.00
2018-04-10T00:55:47.041Z,100.00
2018-04-10T00:56:50.038Z,100.00
2018-04-10T00:57:53.733Z,100.00
2018-04-10T00:58:57.853Z,100.00
2018-04-10T01:00:02.457Z,100.00
2018-04-10T01:01:05.474Z,100.00
2018-04-10T01:02:08.404Z,100.00
2018-04-10T01:03:11.317Z,100.00
2018-04-10T01:04:15.264Z,100.00
2018-04-10T01:05:19.712Z,100.00
2018-04-10T01:06:23.767Z,100.00
2018-04-10T01:07:27.051Z,100.00
2018-04-10T01:08:30.242Z,100.00
2018-04-10T01:09:34.824Z,100.00
2018-04-10T01:10:39.095Z,100.00
2018-04-10T01:11:44.397Z,100.00
2018-04-10T01:12:49.399Z,100.00
2018-04-10T01:13:54.989Z,100.00
2018-04-10T01:15:03.830Z,100.00
2018-04-10T01:16:09.501Z,100.00
2018-04-10T01:17:15.795Z,100.00
2018-04-10T01:18:19.995Z,100.00
2018-04-10T01:19:23.373Z,100.00
2018-04-10T01:20:26.567Z,100.00
2018-04-10T01:21:31.260Z,100.00
2018-04-10T01:22:34.445Z,100.00
2018-04-10T01:23:37.746Z,100.00
2018-04-10T01:24:40.722Z,100.00
2018-04-10T01:25:44.292Z,100.00
2018-04-10T01:26:47.518Z,100.00
2018-04-10T01:27:50.729Z,100.00
2018-04-10T01:28:53.679Z,100.00
2018-04-10T01:29:57.273Z,100.00
2018-04-10T01:31:01.317Z,100.00
2018-04-10T01:32:05.515Z,100.00
2018-04-10T01:33:08.696Z,100.00
2018-04-10T01:34:11.670Z,100.00
2018-04-10T01:35:14.596Z,100.00
2018-04-10T01:36:18.214Z,100.00
2018-04-10T01:37:22.260Z,100.00
2018-04-10T01:38:25.239Z,100.00
2018-04-10T01:39:28.181Z,100.00
2018-04-10T01:40:31.159Z,100.00
2018-04-10T01:41:35.818Z,100.00
2018-04-10T01:42:39.935Z,100.00
2018-04-10T01:43:44.077Z,100.00
2018-04-10T01:44:48.069Z,100.00
2018-04-10T01:45:51.040Z,100.00
2018-04-10T01:46:54.054Z,100.00
2018-04-10T01:47:57.594Z,100.00
2018-04-10T01:49:02.894Z,100.00
2018-04-10T01:50:07.148Z,100.00
2018-04-10T01:51:10.113Z,100.00
2018-04-10T01:52:13.115Z,100.00
2018-04-10T01:53:16.112Z,100.00
2018-04-10T01:54:20.997Z,100.00
2018-04-10T01:55:27.148Z,100.00
2018-04-10T01:56:32.486Z,100.00
2018-04-10T01:57:36.595Z,100.00
2018-04-10T01:58:40.614Z,100.00
2018-04-10T01:59:43.625Z,100.00
2018-04-10T02:00:46.560Z,100.00
2018-04-10T02:01:49.820Z,100.00
2018-04-10T02:02:53.450Z,100.00
2018-04-10T02:03:57.597Z,100.00
2018-04-10T02:05:01.059Z,100.00
2018-04-10T02:06:03.983Z,100.00
2018-04-10T02:07:06.896Z,100.00
2018-04-10T02:08:10.871Z,100.00
2018-04-10T02:09:14.593Z,100.00
2018-04-10T02:12:44.525Z,100.00
2018-04-10T02:13:49.383Z,100.00
2018-04-10T02:19:46.472Z,100.00
2018-04-10T02:20:49.420Z,100.00
2018-04-10T02:21:52.328Z,100.00
2018-04-10T02:22:55.550Z,100.00
2018-04-10T02:23:58.896Z,100.00
2018-04-10T02:25:01.916Z,100.00
2018-04-10T02:26:05.109Z,100.00
2018-04-10T02:27:08.025Z,100.00
2018-04-10T02:28:12.471Z,100.00
2018-04-10T02:29:15.732Z,100.00
2018-04-10T02:30:18.629Z,100.00
2018-04-10T02:31:21.621Z,100.00
2018-04-10T02:32:24.867Z,100.00
2018-04-10T02:33:28.081Z,100.00
2018-04-10T02:34:31.512Z,100.00
2018-04-10T02:35:34.406Z,100.00
2018-04-10T02:36:37.311Z,100.00
2018-04-10T02:37:40.411Z,100.00
2018-04-10T02:38:45.729Z,100.00
2018-04-10T02:39:48.929Z,100.00
2018-04-10T02:40:51.871Z,100.00
2018-04-10T02:41:54.845Z,100.00
2018-04-10T02:42:57.982Z,100.00
2018-04-10T02:44:02.388Z,100.00
2018-04-10T02:45:08.632Z,100.00
2018-04-10T02:46:12.047Z,100.00
2018-04-10T02:47:15.301Z,100.00
2018-04-10T02:48:18.301Z,100.00
2018-04-10T02:49:21.252Z,100.00
2018-04-10T02:50:25.679Z,100.00
2018-04-10T02:51:29.935Z,100.00
2018-04-10T02:52:33.865Z,100.00
2018-04-10T02:53:36.907Z,100.00
2018-04-10T02:54:40.231Z,100.00
2018-04-10T02:55:43.203Z,100.00
2018-04-10T02:56:47.247Z,100.00
2018-04-10T02:57:51.197Z,100.00
2018-04-10T02:58:54.147Z,100.00
2018-04-10T02:59:57.152Z,100.00
2018-04-10T03:01:00.073Z,100.00
2018-04-10T03:02:03.451Z,100.00
2018-04-10T03:03:07.589Z,100.00
2018-04-10T03:04:10.518Z,100.00
2018-04-10T03:05:14.002Z,100.00
2018-04-10T03:06:16.900Z,100.00
2018-04-10T03:07:20.670Z,100.00
2018-04-10T03:08:24.793Z,100.00
2018-04-10T03:09:28.291Z,100.00
2018-04-10T03:10:31.487Z,100.00
2018-04-10T03:11:34.393Z,100.00
2018-04-10T03:12:37.765Z,100.00
2018-04-10T03:13:42.298Z,100.00
2018-04-10T03:14:45.121Z,100.00
2018-04-10T03:15:48.852Z,100.00
2018-04-10T03:16:51.785Z,100.00
2018-04-10T03:17:55.217Z,100.00
2018-04-10T03:18:59.860Z,100.00
2018-04-10T03:20:03.533Z,100.00
2018-04-10T03:21:06.661Z,100.00
2018-04-10T03:22:09.840Z,100.00
2018-04-10T03:23:12.782Z,100.00
2018-04-10T03:24:16.728Z,100.00
2018-04-10T03:25:20.911Z,100.00
2018-04-10T03:26:24.353Z,100.00
2018-04-10T03:27:27.482Z,100.00
2018-04-10T03:28:30.681Z,100.00
2018-04-10T03:29:34.625Z,100.00
2018-04-10T03:30:39.953Z,100.00
2018-04-10T03:31:43.565Z,100.00
2018-04-10T03:32:46.508Z,100.00
2018-04-10T03:33:49.453Z,100.00
2018-04-10T03:34:52.435Z,100.00
2018-04-10T03:35:55.890Z,100.00
2018-04-10T03:36:59.979Z,100.00
2018-04-10T03:38:02.823Z,100.00
2018-04-10T03:39:05.695Z,100.00
2018-04-10T03:40:08.522Z,100.00
2018-04-10T03:41:13.102Z,100.00
2018-04-10T03:42:16.643Z,100.00
2018-04-10T03:43:20.170Z,100.00
2018-04-10T03:44:23.207Z,100.00
2018-04-10T03:45:26.592Z,100.00
2018-04-10T03:46:29.850Z,100.00
2018-04-10T03:47:33.492Z,100.00
2018-04-10T03:48:36.485Z,100.00
2018-04-10T03:49:39.785Z,100.00
2018-04-10T03:50:42.701Z,100.00
2018-04-10T03:51:47.461Z,100.00
2018-04-10T03:52:51.161Z,100.00
2018-04-10T03:55:02.172Z,100.00
2018-04-10T03:56:05.324Z,100.00
2018-04-10T03:57:08.553Z,100.00
2018-04-10T03:58:11.470Z,100.00
2018-04-10T03:59:14.722Z,100.00
2018-04-10T04:00:19.067Z,100.00
2018-04-10T04:01:22.094Z,100.00
2018-04-10T04:02:25.229Z,100.00
2018-04-10T04:03:28.371Z,100.00
2018-04-10T04:04:31.907Z,100.00
2018-04-10T04:05:35.624Z,100.00
2018-04-10T04:06:38.786Z,100.00
2018-04-10T04:07:41.728Z,100.00
2018-04-10T04:08:44.731Z,100.00
2018-04-10T04:09:48.568Z,100.00
2018-04-10T04:10:52.679Z,100.00
2018-04-10T04:11:56.505Z,100.00
2018-04-10T04:12:59.475Z,100.00
2018-04-10T04:14:02.423Z,100.00
2018-04-10T04:15:05.650Z,100.00
2018-04-10T04:16:09.888Z,100.00
2018-04-10T04:17:12.780Z,100.00
2018-04-10T04:18:15.736Z,100.00
2018-04-10T04:19:18.551Z,100.00
2018-04-10T04:20:22.491Z,100.00
2018-04-10T04:21:27.086Z,100.00
2018-04-10T04:22:31.092Z,100.00
2018-04-10T04:23:34.137Z,100.00
2018-04-10T04:24:37.031Z,100.00
2018-04-10T04:25:40.920Z,100.00
2018-04-10T04:26:45.311Z,100.00
2018-04-10T04:27:48.847Z,100.00
2018-04-10T04:28:52.351Z,100.00
2018-04-10T04:29:55.288Z,100.00
2018-04-10T04:30:58.187Z,100.00
2018-04-10T04:32:01.982Z,100.00
2018-04-10T04:33:05.874Z,100.00
2018-04-10T04:34:08.975Z,100.00
2018-04-10T04:35:12.184Z,100.00
2018-04-10T04:36:15.132Z,100.00
2018-04-10T04:37:18.518Z,100.00
2018-04-10T04:38:23.088Z,100.00
2018-04-10T04:39:26.464Z,100.00
2018-04-10T04:40:29.429Z,100.00
2018-04-10T04:41:32.693Z,100.00
2018-04-10T04:42:36.304Z,100.00
2018-04-10T04:43:40.280Z,100.00
2018-04-10T04:44:43.400Z,100.00
2018-04-10T04:45:46.970Z,100.00
2018-04-10T04:46:49.904Z,100.00
2018-04-10T04:47:53.646Z,100.00
2018-04-10T04:48:58.153Z,100.00
2018-04-10T04:50:01.856Z,100.00
2018-04-10T04:51:05.284Z,100.00
2018-04-10T04:52:08.298Z,100.00
2018-04-10T04:53:11.258Z,100.00
2018-04-10T04:54:15.407Z,100.00
2018-04-10T04:55:19.119Z,100.00
2018-04-10T04:56:22.056Z,100.00
2018-04-10T04:57:25.111Z,100.00
2018-04-10T04:58:28.056Z,100.00
2018-04-10T04:59:32.393Z,100.00
2018-04-10T05:00:37.029Z,100.00
2018-04-10T05:01:40.422Z,100.00
2018-04-10T05:02:43.277Z,100.00
2018-04-10T05:03:46.252Z,100.00
2018-04-10T05:04:49.655Z,100.00
2018-04-10T05:05:54.044Z,100.00
2018-04-10T05:06:58.106Z,100.00
2018-04-10T05:08:01.071Z,100.00
2018-04-10T05:09:04.144Z,100.00
2018-04-10T05:10:07.066Z,100.00
2018-04-10T05:11:15.853Z,100.00
2018-04-10T05:12:18.954Z,100.00
2018-04-10T05:13:25.757Z,100.00
2018-04-10T05:14:31.135Z,100.00
2018-04-10T05:15:36.225Z,100.00
2018-04-10T05:16:43.086Z,100.00
2018-04-10T05:17:48.673Z,100.00
2018-04-10T05:18:54.060Z,100.00
2018-04-10T05:20:05.137Z,100.00
2018-04-10T05:21:08.320Z,100.00
2018-04-10T05:22:11.465Z,100.00
2018-04-10T05:23:14.814Z,100.00
2018-04-10T05:24:17.927Z,100.00
2018-04-10T05:25:22.357Z,100.00
2018-04-10T05:26:26.792Z,100.00
2018-04-10T05:27:29.778Z,100.00
2018-04-10T05:28:32.754Z,100.00
2018-04-10T05:29:36.035Z,100.00
2018-04-10T05:30:39.809Z,100.00
2018-04-10T05:31:42.785Z,100.00
2018-04-10T05:32:46.001Z,100.00
2018-04-10T05:33:48.880Z,100.00
2018-04-10T05:34:52.245Z,100.00
2018-04-10T05:35:56.028Z,100.00
2018-04-10T05:36:58.908Z,100.00
2018-04-10T05:38:01.872Z,100.00
2018-04-10T05:39:05.164Z,100.00
2018-04-10T05:40:08.329Z,100.00
2018-04-10T05:41:11.655Z,100.00
2018-04-10T05:42:14.510Z,100.00
2018-04-10T05:43:18.161Z,100.00
2018-04-10T05:44:21.057Z,100.00
2018-04-10T05:45:26.056Z,100.00
2018-04-10T05:46:29.536Z,100.00
2018-04-10T05:47:32.451Z,100.00
2018-04-10T05:48:35.424Z,100.00
2018-04-10T05:49:38.395Z,100.00
2018-04-10T05:50:42.020Z,100.00
2018-04-10T05:51:45.960Z,100.00
2018-04-10T05:52:49.069Z,100.00
2018-04-10T05:53:52.186Z,100.00
2018-04-10T05:54:55.094Z,100.00
2018-04-10T05:55:58.632Z,100.00
2018-04-10T05:57:02.599Z,100.00
2018-04-10T05:58:07.234Z,100.00
2018-04-10T05:59:10.227Z,100.00
2018-04-10T06:00:13.247Z,100.00
2018-04-10T06:01:16.634Z,100.00
2018-04-10T06:02:20.481Z,100.00
2018-04-10T06:03:23.399Z,100.00
2018-04-10T06:04:26.603Z,100.00
2018-04-10T06:05:29.591Z,100.00
2018-04-10T06:06:33.840Z,100.00
2018-04-10T06:07:40.340Z,100.00
2018-04-10T06:08:44.397Z,100.00
2018-04-10T06:09:48.263Z,100.00
2018-04-10T06:10:51.759Z,100.00
2018-04-10T06:11:54.687Z,100.00
2018-04-10T06:12:57.659Z,100.00
2018-04-10T06:14:01.346Z,100.00
2018-04-10T06:15:08.441Z,100.00
2018-04-10T07:27:50.416Z,100.00
2018-04-10T07:28:53.509Z,100.00
2018-04-10T07:29:57.187Z,100.00
2018-04-10T07:31:01.074Z,100.00
2018-04-10T07:32:04.741Z,100.00
2018-04-10T07:33:07.717Z,100.00
2018-04-10T07:34:11.730Z,100.00
2018-04-10T07:35:16.418Z,100.00
2018-04-10T07:36:19.651Z,100.00
2018-04-10T07:37:22.925Z,100.00
2018-04-10T07:38:25.946Z,100.00
2018-04-10T08:16:32.251Z,100.00
2018-04-10T08:17:35.207Z,100.00
2018-04-10T08:18:38.161Z,100.00
2018-04-10T08:19:41.113Z,100.00
2018-04-10T08:20:44.096Z,100.00
2018-04-10T08:21:47.094Z,100.00
2018-04-10T08:22:50.529Z,100.00
2018-04-10T08:23:53.493Z,100.00
2018-04-10T08:24:56.533Z,100.00
2018-04-10T08:25:59.525Z,100.00
2018-04-10T08:27:02.531Z,100.00
2018-04-10T08:28:05.525Z,100.00
2018-04-10T08:29:09.327Z,100.00
2018-04-10T08:30:12.418Z,100.00
2018-04-10T08:31:15.435Z,100.00
2018-04-10T08:32:19.331Z,100.00
2018-04-10T08:33:22.522Z,100.00
2018-04-10T08:34:26.242Z,100.00
2018-04-10T08:35:29.736Z,100.00
2018-04-10T08:36:32.667Z,100.00
2018-04-10T08:37:39.117Z,100.00
2018-04-10T08:38:42.100Z,100.00
2018-04-10T08:39:45.573Z,100.00
2018-04-10T08:40:49.441Z,100.00
2018-04-10T08:41:53.088Z,100.00
2018-04-10T08:43:00.698Z,100.00
2018-04-10T08:44:05.947Z,100.00
2018-04-10T08:45:14.351Z,100.00
2018-04-10T08:46:19.681Z,100.00
2018-04-10T08:47:25.000Z,100.00
2018-04-10T08:48:28.760Z,100.00
2018-04-10T08:49:33.293Z,100.00
2018-04-10T08:50:36.621Z,100.00
2018-04-10T08:51:39.738Z,100.00
2018-04-10T08:52:42.783Z,100.00
2018-04-10T08:53:46.179Z,100.00
2018-04-10T08:54:50.342Z,100.00
2018-04-10T08:55:53.431Z,100.00
2018-04-10T08:56:56.389Z,100.00
2018-04-10T08:57:59.494Z,100.00
2018-04-10T08:59:02.746Z,100.00
2018-04-10T09:00:07.060Z,100.00
2018-04-10T09:01:10.842Z,100.00
2018-04-10T09:02:13.902Z,100.00
2018-04-10T09:03:16.945Z,100.00
2018-04-10T09:04:20.165Z,100.00
2018-04-10T09:05:24.889Z,100.00
2018-04-10T09:06:28.127Z,100.00
2018-04-10T09:07:33.269Z,100.00
2018-04-10T09:08:37.622Z,100.00
2018-04-10T09:09:40.707Z,100.00
2018-04-10T09:10:43.804Z,100.00
2018-04-10T09:11:46.846Z,100.00
2018-04-10T09:12:51.584Z,100.00
2018-04-10T09:13:54.841Z,100.00
2018-04-10T09:14:59.550Z,100.00
2018-04-10T09:16:03.531Z,100.00
2018-04-10T09:17:07.311Z,100.00
2018-04-10T09:18:10.255Z,100.00
2018-04-10T09:19:13.482Z,100.00
2018-04-10T09:20:16.757Z,100.00
2018-04-10T09:21:20.325Z,100.00
2018-04-10T09:22:23.399Z,100.00
2018-04-10T09:23:27.134Z,100.00
2018-04-10T09:24:30.068Z,100.00
2018-04-10T09:25:33.742Z,100.00
2018-04-10T09:26:37.027Z,100.00
2018-04-10T09:27:40.069Z,100.00
2018-04-10T09:28:43.029Z,100.00
2018-04-10T09:29:46.276Z,100.00
2018-04-10T09:30:50.390Z,100.00
2018-04-10T09:31:53.970Z,100.00
2018-04-10T09:32:56.987Z,100.00
2018-04-10T09:33:59.979Z,100.00
2018-04-10T09:35:03.079Z,100.00
2018-04-10T09:36:06.558Z,100.00
2018-04-10T09:37:09.526Z,100.00
2018-04-10T09:38:12.898Z,100.00
2018-04-10T09:39:15.854Z,100.00
2018-04-10T09:40:20.304Z,100.00
2018-04-10T09:41:24.092Z,100.00
2018-04-10T09:42:27.100Z,100.00
2018-04-10T09:43:30.044Z,100.00
2018-04-10T09:44:33.840Z,100.00
2018-04-10T09:45:38.207Z,100.00
2018-04-10T09:47:50.326Z,100.00
2018-04-10T09:48:54.633Z,100.00
2018-04-10T09:49:57.957Z,100.00
2018-04-10T09:51:01.742Z,100.00
2018-04-10T09:52:04.848Z,100.00
2018-04-10T09:53:07.968Z,100.00
2018-04-10T09:54:12.039Z,100.00
2018-04-10T09:55:17.340Z,100.00
2018-04-10T09:56:21.753Z,100.00
2018-04-10T09:57:28.080Z,100.00
2018-04-10T09:58:33.686Z,100.00
2018-04-10T09:59:42.225Z,100.00
2018-04-10T10:00:45.827Z,100.00
2018-04-10T10:01:49.597Z,100.00
2018-04-10T10:02:53.708Z,100.00
2018-04-10T10:03:57.823Z,100.00
2018-04-10T10:05:00.841Z,100.00
2018-04-10T10:06:03.750Z,100.00
2018-04-10T10:07:07.168Z,100.00
2018-04-10T10:08:11.180Z,100.00
2018-04-10T10:09:14.472Z,100.00
2018-04-10T10:10:18.080Z,100.00
2018-04-10T10:11:22.041Z,100.00
2018-04-10T10:12:25.001Z,100.00
2018-04-10T10:13:28.768Z,100.00
2018-04-10T10:14:32.745Z,100.00
2018-04-10T10:15:36.202Z,100.00
2018-04-10T10:16:40.122Z,100.00
2018-04-10T10:17:45.150Z,100.00
2018-04-10T10:18:48.521Z,100.00
2018-04-10T10:24:51.610Z,100.00
2018-04-10T10:25:56.362Z,100.00
2018-04-10T10:26:59.965Z,100.00
2018-04-10T10:28:04.473Z,100.00
2018-04-10T10:29:08.008Z,100.00
2018-04-10T10:30:11.959Z,100.00
2018-04-10T10:31:15.466Z,100.00
2018-04-10T10:32:18.531Z,100.00
2018-04-10T10:33:21.518Z,100.00
2018-04-10T10:34:24.479Z,100.00
2018-04-10T10:35:29.349Z,100.00
2018-04-10T10:36:32.740Z,100.00
2018-04-10T10:37:36.111Z,100.00
2018-04-10T10:38:39.115Z,100.00
2018-04-10T10:39:42.427Z,100.00
2018-04-10T10:40:45.390Z,100.00
2018-04-10T10:41:48.393Z,100.00
2018-04-10T10:42:51.363Z,100.00
2018-04-10T10:43:55.831Z,100.00
2018-04-10T10:44:59.353Z,100.00
2018-04-10T10:46:04.130Z,100.00
2018-04-10T10:47:07.191Z,100.00
2018-04-10T10:48:10.190Z,100.00
2018-04-10T10:49:13.144Z,100.00
2018-04-10T10:50:16.945Z,100.00
2018-04-10T10:51:20.796Z,100.00
2018-04-10T10:52:25.325Z,100.00
2018-04-10T10:53:28.583Z,100.00
2018-04-10T10:54:31.885Z,100.00
2018-04-10T10:55:34.931Z,100.00
2018-04-10T10:56:37.964Z,100.00
2018-04-10T10:57:41.762Z,100.00
2018-04-10T10:58:44.756Z,100.00
2018-04-10T10:59:47.756Z,100.00
2018-04-10T11:00:50.797Z,100.00
2018-04-10T11:01:55.183Z,100.00
2018-04-10T11:02:58.091Z,100.00
2018-04-10T11:04:01.828Z,100.00
2018-04-10T11:05:05.157Z,100.00
2018-04-10T11:06:08.147Z,100.00
2018-04-10T11:07:11.689Z,100.00
2018-04-10T11:08:15.253Z,100.00
2018-04-10T11:09:18.472Z,100.00
2018-04-10T11:10:21.412Z,100.00
2018-04-10T11:11:26.766Z,100.00
2018-04-10T11:12:30.509Z,100.00
2018-04-10T11:13:34.274Z,100.00
2018-04-10T11:14:37.729Z,100.00
2018-04-10T11:15:40.865Z,100.00
2018-04-10T11:16:45.323Z,100.00
2018-04-10T11:17:48.455Z,100.00
2018-04-10T11:18:51.439Z,100.00
2018-04-10T11:19:54.346Z,100.00
2018-04-10T11:20:57.741Z,100.00
2018-04-10T11:22:00.749Z,100.00
2018-04-10T11:23:05.268Z,100.00
2018-04-10T11:24:08.264Z,100.00
2018-04-10T11:25:13.326Z,100.00
2018-04-10T11:26:16.743Z,99.20
2018-04-10T11:27:20.983Z,96.59
2018-04-10T11:28:24.162Z,97.48
2018-04-10T11:29:27.207Z,97.88
2018-04-10T11:30:30.156Z,98.44
2018-04-10T11:31:33.857Z,100.00
2018-04-10T11:32:36.850Z,100.00
2018-04-10T11:33:41.074Z,100.00
2018-04-10T11:34:44.104Z,100.00
2018-04-10T11:35:47.150Z,100.00
2018-04-10T11:36:50.148Z,100.00
2018-04-10T11:37:53.091Z,100.00
2018-04-10T11:38:56.141Z,100.00
2018-04-10T11:39:59.360Z,98.25
2018-04-10T11:41:03.882Z,99.16
2018-04-10T11:42:06.797Z,100.00
2018-04-10T11:43:13.110Z,98.71
2018-04-10T11:44:16.021Z,97.25
2018-04-10T11:45:18.995Z,97.75
2018-04-10T11:46:22.306Z,97.21
2018-04-10T11:47:25.576Z,95.04
2018-04-10T11:48:29.443Z,93.33
2018-04-10T11:49:34.231Z,88.25
2018-04-10T11:50:37.196Z,86.82
2018-04-10T11:51:40.741Z,88.14
2018-04-10T11:52:43.739Z,88.03
2018-04-10T11:53:46.643Z,87.91
2018-04-10T11:54:49.828Z,87.82
2018-04-10T11:55:53.238Z,87.22
2018-04-10T11:56:56.704Z,88.44
2018-04-10T11:58:02.069Z,87.49
2018-04-10T11:59:05.058Z,85.62
2018-04-10T12:00:08.599Z,82.95
2018-04-10T12:01:12.932Z,83.62
2018-04-10T12:02:17.209Z,82.46
2018-04-10T12:03:20.256Z,80.87
2018-04-10T12:04:23.557Z,79.54
2018-04-10T12:05:26.508Z,76.79
2018-04-10T12:06:29.467Z,79.40
2018-04-10T12:07:32.574Z,80.27
2018-04-10T12:08:35.497Z,79.50
2018-04-10T12:09:38.455Z,79.27
2018-04-10T12:10:42.001Z,77.15
2018-04-10T12:11:45.178Z,75.76
2018-04-10T12:12:48.664Z,78.44
2018-04-10T12:13:51.968Z,78.36
2018-04-10T12:14:56.330Z,79.25
2018-04-10T12:15:59.377Z,79.85
2018-04-10T12:17:03.226Z,80.62
2018-04-10T12:18:06.242Z,82.86
2018-04-10T12:19:09.537Z,82.46
2018-04-10T12:20:12.561Z,83.32
2018-04-10T12:21:15.933Z,83.93
2018-04-10T12:22:19.470Z,84.09
2018-04-10T12:23:22.974Z,82.32
2018-04-10T12:24:26.003Z,81.39
2018-04-10T12:25:29.118Z,81.92
2018-04-10T12:26:32.074Z,81.34
2018-04-10T12:27:37.108Z,80.82
2018-04-10T12:28:47.907Z,79.53
2018-04-10T12:29:51.976Z,79.05
2018-04-10T12:30:56.337Z,78.39
2018-04-10T12:32:03.890Z,76.65
2018-04-10T12:33:07.051Z,75.71
2018-04-10T12:34:10.453Z,76.34
2018-04-10T12:35:13.694Z,79.64
2018-04-10T12:36:16.663Z,81.55
2018-04-10T12:37:20.378Z,80.70
2018-04-10T12:38:23.369Z,83.33
2018-04-10T12:39:27.566Z,84.96
2018-04-10T12:40:30.776Z,84.29
2018-04-10T12:41:34.034Z,83.30
2018-04-10T12:42:37.032Z,80.71
2018-04-10T12:43:40.022Z,79.00
2018-04-10T12:44:43.424Z,77.90
2018-04-10T12:45:46.408Z,77.02
2018-04-10T12:46:50.193Z,76.00
2018-04-10T12:47:53.650Z,76.98
2018-04-10T12:48:57.742Z,76.83
2018-04-10T19:05:06.945Z,100.00
2018-04-10T19:06:09.829Z,100.00
2018-04-10T19:07:12.831Z,100.00
2018-04-10T19:08:17.905Z,100.00
2018-04-10T19:09:20.910Z,100.00
2018-04-10T19:10:24.175Z,100.00
2018-04-10T19:11:27.576Z,100.00
2018-04-10T19:12:30.610Z,100.00
2018-04-10T19:13:33.589Z,100.00
2018-04-10T19:14:36.576Z,100.00
2018-04-10T19:15:39.618Z,100.00
2018-04-10T19:16:42.923Z,100.00
2018-04-10T19:17:45.943Z,100.00
2018-04-10T19:18:48.926Z,100.00
2018-04-10T19:19:51.998Z,100.00
2018-04-10T19:20:55.260Z,100.00
2018-04-10T19:21:58.277Z,100.00
2018-04-10T19:23:01.587Z,100.00
2018-04-10T19:24:04.968Z,100.00
2018-04-10T19:25:08.105Z,100.00
2018-04-10T19:26:11.270Z,100.00
2018-04-10T19:27:14.259Z,100.00
2018-04-10T19:28:17.322Z,100.00
2018-04-10T19:29:20.564Z,100.00
2018-04-10T19:30:23.513Z,100.00
2018-04-10T19:31:26.454Z,100.00
2018-04-10T19:32:29.450Z,100.00
2018-04-10T19:33:32.431Z,100.00
2018-04-10T19:34:35.406Z,100.00
2018-04-10T19:35:38.955Z,100.00
2018-04-10T19:36:42.179Z,100.00
2018-04-10T19:37:45.214Z,100.00
2018-04-10T19:38:48.136Z,100.00
2018-04-10T19:39:51.130Z,100.00
2018-04-10T19:40:54.322Z,100.00
2018-04-10T19:41:57.832Z,100.00
2018-04-10T19:43:00.765Z,100.00
2018-04-10T19:44:03.807Z,100.00
2018-04-10T19:45:06.757Z,100.00
2018-04-10T19:46:09.827Z,100.00
2018-04-10T19:47:12.837Z,100.00
2018-04-10T19:48:16.076Z,100.00
2018-04-10T19:49:19.563Z,100.00
2018-04-10T19:50:22.515Z,100.00
2018-04-10T19:51:25.476Z,100.00
2018-04-10T19:52:28.442Z,100.00
2018-04-10T19:53:31.538Z,100.00
2018-04-10T19:54:34.839Z,100.00
2018-04-10T19:55:37.825Z,100.00
2018-04-10T19:56:40.797Z,100.00
2018-04-10T19:57:43.839Z,100.00
2018-04-10T19:58:46.785Z,100.00
2018-04-10T19:59:49.675Z,100.00
2018-04-10T20:00:53.024Z,100.00
2018-04-10T20:01:56.017Z,100.00
2018-04-10T20:02:59.014Z,100.00
2018-04-10T20:04:02.004Z,100.00
2018-04-10T20:05:04.900Z,100.00
2018-04-10T20:06:07.811Z,100.00
2018-04-10T20:07:11.157Z,100.00
2018-04-10T20:08:14.204Z,100.00
2018-04-10T20:09:17.108Z,100.00
2018-04-10T20:10:20.204Z,100.00
2018-04-10T20:11:24.162Z,100.00
2018-04-10T20:12:27.144Z,100.00
2018-04-10T20:13:31.525Z,100.00
2018-04-10T20:14:34.533Z,100.00
2018-04-10T20:15:37.528Z,100.00
2018-04-10T20:16:40.524Z,100.00
2018-04-10T20:17:43.590Z,100.00
2018-04-10T20:18:46.569Z,100.00
2018-04-10T20:19:50.011Z,100.00
2018-04-10T20:20:53.127Z,100.00
2018-04-10T20:21:56.202Z,100.00
2018-04-10T20:22:59.159Z,100.00
2018-04-10T20:24:02.065Z,100.00
2018-04-10T20:25:05.044Z,100.00
2018-04-10T20:26:08.314Z,100.00
2018-04-10T20:27:12.109Z,100.00
2018-04-10T20:28:14.982Z,100.00
2018-04-10T20:29:17.843Z,100.00
2018-04-10T20:30:27.793Z,100.00
2018-04-10T20:31:31.362Z,100.00
2018-04-10T20:32:34.348Z,100.00
2018-04-10T20:33:37.325Z,100.00
2018-04-10T20:34:40.289Z,100.00
2018-04-10T20:35:43.332Z,100.00
2018-04-10T20:36:46.336Z,100.00
2018-04-10T20:37:49.615Z,100.00
2018-04-10T20:38:52.930Z,100.00
2018-04-10T20:39:56.212Z,100.00
2018-04-10T20:40:59.324Z,100.00
2018-04-10T20:42:02.313Z,100.00
2018-04-10T20:43:05.268Z,100.00
2018-04-10T20:44:08.617Z,100.00
2018-04-10T20:45:11.581Z,100.00
2018-04-10T20:46:14.773Z,100.00
2018-04-10T20:47:17.808Z,100.00
2018-04-10T20:48:20.984Z,100.00
2018-04-10T20:49:23.994Z,100.00
2018-04-10T20:50:27.441Z,100.00
2018-04-10T20:51:30.469Z,100.00
2018-04-10T20:52:33.367Z,100.00
2018-04-10T20:53:36.722Z,100.00
2018-04-10T20:54:39.830Z,100.00
2018-04-10T20:55:42.815Z,100.00
2018-04-10T20:56:46.188Z,100.00
2018-04-10T20:57:49.143Z,100.00
2018-04-10T20:58:52.090Z,100.00
2018-04-10T20:59:55.074Z,100.00
2018-04-10T21:00:58.083Z,100.00
2018-04-10T21:02:01.067Z,100.00
2018-04-10T21:03:05.060Z,100.00
2018-04-10T21:04:09.461Z,100.00
2018-04-10T21:05:12.551Z,100.00
2018-04-10T21:06:15.576Z,100.00
2018-04-10T21:07:18.618Z,100.00
2018-04-10T21:08:21.702Z,100.00
2018-04-10T21:09:25.695Z,100.00
2018-04-10T21:10:28.638Z,100.00
2018-04-10T21:11:31.781Z,100.00
2018-04-10T21:12:34.794Z,100.00
2018-04-10T21:13:37.737Z,100.00
2018-04-10T21:14:40.833Z,100.00
2018-04-10T21:15:44.052Z,100.00
2018-04-10T21:16:47.071Z,100.00
2018-04-10T21:17:50.128Z,100.00
2018-04-10T21:18:53.207Z,100.00
2018-04-10T21:19:56.402Z,100.00
2018-04-10T21:20:59.487Z,100.00
2018-04-10T21:22:03.240Z,100.00
2018-04-10T21:23:06.196Z,100.00
2018-04-10T21:24:09.170Z,100.00
2018-04-10T21:25:12.186Z,100.00
2018-04-10T21:26:15.162Z,100.00
2018-04-10T21:27:18.257Z,100.00
2018-04-10T21:28:21.545Z,100.00
2018-04-10T21:29:24.540Z,100.00
2018-04-10T21:30:27.553Z,100.00
2018-04-10T21:31:30.551Z,100.00
2018-04-10T21:32:33.576Z,100.00
2018-04-10T21:33:36.593Z,100.00